sensor_id;sensor_type;location;lat;lon;timestamp;pressure;altitude;pressure_sealevel;temperature;humidity
71107;BME280;58763;47.982;11.516;2023-04-23T00:00:39;93603.56;;;13.68;60.16
71107;BME280;58763;47.982;11.516;2023-04-23T00:03:06;93601.97;;;13.67;60.27
71107;BME280;58763;47.982;11.516;2023-04-23T00:05:37;93596.88;;;13.74;60.26
71107;BME280;58763;47.982;11.516;2023-04-23T00:08:03;93595.88;;;13.70;60.11
71107;BME280;58763;47.982;11.516;2023-04-23T00:10:30;93596.06;;;13.65;60.93
71107;BME280;58763;47.982;11.516;2023-04-23T00:12:56;93592.22;;;13.57;61.59
71107;BME280;58763;47.982;11.516;2023-04-23T00:15:22;93591.41;;;13.57;61.48
71107;BME280;58763;47.982;11.516;2023-04-23T00:17:48;93589.97;;;13.59;61.33
71107;BME280;58763;47.982;11.516;2023-04-23T00:20:15;93587.09;;;13.56;61.68
71107;BME280;58763;47.982;11.516;2023-04-23T00:22:41;93585.16;;;13.48;61.84
71107;BME280;58763;47.982;11.516;2023-04-23T00:25:08;93592.50;;;13.39;62.37
71107;BME280;58763;47.982;11.516;2023-04-23T00:27:33;93585.00;;;13.36;62.36
71107;BME280;58763;47.982;11.516;2023-04-23T00:29:59;93584.69;;;13.46;60.88
71107;BME280;58763;47.982;11.516;2023-04-23T00:32:24;93586.75;;;13.40;60.78
71107;BME280;58763;47.982;11.516;2023-04-23T00:34:50;93574.47;;;13.43;60.98
71107;BME280;58763;47.982;11.516;2023-04-23T00:37:16;93576.53;;;13.46;60.46
71107;BME280;58763;47.982;11.516;2023-04-23T00:39:42;93577.31;;;13.38;60.73
71107;BME280;58763;47.982;11.516;2023-04-23T00:42:08;93585.00;;;13.44;60.46
71107;BME280;58763;47.982;11.516;2023-04-23T00:44:39;93579.41;;;13.32;61.29
71107;BME280;58763;47.982;11.516;2023-04-23T00:47:05;93576.69;;;13.32;61.86
71107;BME280;58763;47.982;11.516;2023-04-23T00:49:32;93577.66;;;13.36;60.61
71107;BME280;58763;47.982;11.516;2023-04-23T00:51:58;93575.56;;;13.33;60.38
71107;BME280;58763;47.982;11.516;2023-04-23T00:54:25;93571.09;;;13.37;60.73
71107;BME280;58763;47.982;11.516;2023-04-23T00:56:50;93572.34;;;13.23;61.53
71107;BME280;58763;47.982;11.516;2023-04-23T00:59:16;93576.31;;;13.16;61.89
71107;BME280;58763;47.982;11.516;2023-04-23T01:01:42;93576.84;;;13.27;61.34
71107;BME280;58763;47.982;11.516;2023-04-23T01:04:11;93576.22;;;13.30;61.08
71107;BME280;58763;47.982;11.516;2023-04-23T01:06:37;93570.78;;;13.30;60.90
71107;BME280;58763;47.982;11.516;2023-04-23T01:09:03;93574.13;;;13.36;60.51
71107;BME280;58763;47.982;11.516;2023-04-23T01:11:31;93564.53;;;13.38;60.57
71107;BME280;58763;47.982;11.516;2023-04-23T01:13:57;93561.16;;;13.33;60.82
71107;BME280;58763;47.982;11.516;2023-04-23T01:16:23;93559.59;;;13.32;61.18
71107;BME280;58763;47.982;11.516;2023-04-23T01:18:49;93565.16;;;13.27;60.89
71107;BME280;58763;47.982;11.516;2023-04-23T01:21:16;93563.56;;;13.26;60.79
71107;BME280;58763;47.982;11.516;2023-04-23T01:23:42;93568.97;;;13.26;60.53
71107;BME280;58763;47.982;11.516;2023-04-23T01:26:08;93563.41;;;13.22;61.22
71107;BME280;58763;47.982;11.516;2023-04-23T01:28:35;93566.88;;;13.14;61.55
71107;BME280;58763;47.982;11.516;2023-04-23T01:31:01;93562.69;;;12.99;62.05
71107;BME280;58763;47.982;11.516;2023-04-23T01:33:26;93561.25;;;13.02;62.45
71107;BME280;58763;47.982;11.516;2023-04-23T01:35:53;93560.03;;;13.08;61.84
71107;BME280;58763;47.982;11.516;2023-04-23T01:38:21;93555.97;;;12.97;61.63
71107;BME280;58763;47.982;11.516;2023-04-23T01:40:46;93562.22;;;12.97;61.31
71107;BME280;58763;47.982;11.516;2023-04-23T01:43:12;93562.16;;;12.89;61.71
71107;BME280;58763;47.982;11.516;2023-04-23T01:45:38;93552.38;;;12.79;62.05
71107;BME280;58763;47.982;11.516;2023-04-23T01:48:04;93557.19;;;12.82;61.65
71107;BME280;58763;47.982;11.516;2023-04-23T01:50:29;93554.34;;;12.87;61.30
71107;BME280;58763;47.982;11.516;2023-04-23T01:52:55;93556.44;;;12.90;61.94
71107;BME280;58763;47.982;11.516;2023-04-23T01:55:20;93558.63;;;12.88;62.99
71107;BME280;58763;47.982;11.516;2023-04-23T01:57:48;93553.53;;;12.87;62.83
71107;BME280;58763;47.982;11.516;2023-04-23T02:00:14;93554.00;;;12.80;63.22
71107;BME280;58763;47.982;11.516;2023-04-23T02:02:42;93552.25;;;12.84;62.12
71107;BME280;58763;47.982;11.516;2023-04-23T02:05:14;93549.41;;;12.89;61.57
71107;BME280;58763;47.982;11.516;2023-04-23T02:07:41;93555.78;;;12.93;61.28
71107;BME280;58763;47.982;11.516;2023-04-23T02:10:08;93550.84;;;12.95;61.18
71107;BME280;58763;47.982;11.516;2023-04-23T02:12:35;93550.53;;;12.97;61.21
71107;BME280;58763;47.982;11.516;2023-04-23T02:15:01;93556.59;;;13.02;61.37
71107;BME280;58763;47.982;11.516;2023-04-23T02:17:27;93558.91;;;13.09;61.17
71107;BME280;58763;47.982;11.516;2023-04-23T02:19:53;93550.59;;;13.14;61.69
71107;BME280;58763;47.982;11.516;2023-04-23T02:22:20;93554.94;;;13.15;61.62
71107;BME280;58763;47.982;11.516;2023-04-23T02:24:46;93556.53;;;13.16;61.44
71107;BME280;58763;47.982;11.516;2023-04-23T02:27:12;93549.66;;;13.18;61.65
71107;BME280;58763;47.982;11.516;2023-04-23T02:29:38;93554.94;;;13.24;61.99
71107;BME280;58763;47.982;11.516;2023-04-23T02:32:04;93550.31;;;13.24;61.50
71107;BME280;58763;47.982;11.516;2023-04-23T02:34:30;93547.44;;;13.29;62.17
71107;BME280;58763;47.982;11.516;2023-04-23T02:36:55;93555.78;;;13.50;63.30
71107;BME280;58763;47.982;11.516;2023-04-23T02:39:21;93553.69;;;13.38;63.37
71107;BME280;58763;47.982;11.516;2023-04-23T02:41:47;93553.03;;;13.33;62.98
71107;BME280;58763;47.982;11.516;2023-04-23T02:44:12;93562.78;;;13.25;63.17
71107;BME280;58763;47.982;11.516;2023-04-23T02:46:38;93560.72;;;13.39;62.90
71107;BME280;58763;47.982;11.516;2023-04-23T02:49:03;93567.56;;;13.28;63.33
71107;BME280;58763;47.982;11.516;2023-04-23T02:51:29;93565.69;;;13.46;63.08
71107;BME280;58763;47.982;11.516;2023-04-23T02:53:55;93568.69;;;13.36;63.89
71107;BME280;58763;47.982;11.516;2023-04-23T02:56:21;93569.03;;;13.43;64.14
71107;BME280;58763;47.982;11.516;2023-04-23T02:58:46;93572.22;;;13.28;64.53
71107;BME280;58763;47.982;11.516;2023-04-23T03:01:12;93568.84;;;13.22;64.95
71107;BME280;58763;47.982;11.516;2023-04-23T03:03:38;93578.72;;;13.18;64.29
71107;BME280;58763;47.982;11.516;2023-04-23T03:06:04;93575.69;;;13.20;64.41
71107;BME280;58763;47.982;11.516;2023-04-23T03:08:31;93574.72;;;13.15;64.02
71107;BME280;58763;47.982;11.516;2023-04-23T03:10:56;93585.59;;;13.15;64.71
71107;BME280;58763;47.982;11.516;2023-04-23T03:13:22;93580.97;;;13.25;64.05
71107;BME280;58763;47.982;11.516;2023-04-23T03:15:47;93582.88;;;13.24;64.12
71107;BME280;58763;47.982;11.516;2023-04-23T03:18:13;93582.56;;;13.17;63.95
71107;BME280;58763;47.982;11.516;2023-04-23T03:20:38;93590.69;;;13.17;64.98
71107;BME280;58763;47.982;11.516;2023-04-23T03:23:04;93580.97;;;13.25;64.71
71107;BME280;58763;47.982;11.516;2023-04-23T03:25:32;93582.56;;;13.26;64.58
71107;BME280;58763;47.982;11.516;2023-04-23T03:27:57;93582.72;;;13.21;64.68
71107;BME280;58763;47.982;11.516;2023-04-23T03:30:23;93583.03;;;13.19;64.59
71107;BME280;58763;47.982;11.516;2023-04-23T03:32:49;93585.88;;;13.05;65.35
71107;BME280;58763;47.982;11.516;2023-04-23T03:35:15;93587.28;;;13.03;65.02
71107;BME280;58763;47.982;11.516;2023-04-23T03:37:41;93578.50;;;12.97;64.99
71107;BME280;58763;47.982;11.516;2023-04-23T03:40:07;93581.34;;;12.92;65.11
71107;BME280;58763;47.982;11.516;2023-04-23T03:42:33;93576.19;;;12.82;66.12
71107;BME280;58763;47.982;11.516;2023-04-23T03:44:59;93585.28;;;12.78;66.20
71107;BME280;58763;47.982;11.516;2023-04-23T03:47:25;93585.41;;;12.73;66.47
71107;BME280;58763;47.982;11.516;2023-04-23T03:49:51;93589.53;;;12.70;67.48
71107;BME280;58763;47.982;11.516;2023-04-23T03:52:17;93585.06;;;12.74;67.60
71107;BME280;58763;47.982;11.516;2023-04-23T03:54:43;93583.97;;;12.75;66.88
71107;BME280;58763;47.982;11.516;2023-04-23T03:57:08;93580.47;;;12.75;66.56
71107;BME280;58763;47.982;11.516;2023-04-23T03:59:35;93575.84;;;12.75;66.36
71107;BME280;58763;47.982;11.516;2023-04-23T04:02:00;93576.03;;;12.79;65.45
71107;BME280;58763;47.982;11.516;2023-04-23T04:04:29;93585.44;;;12.81;65.20
71107;BME280;58763;47.982;11.516;2023-04-23T04:06:55;93583.84;;;12.80;66.05
71107;BME280;58763;47.982;11.516;2023-04-23T04:09:20;93591.50;;;12.78;66.19
71107;BME280;58763;47.982;11.516;2023-04-23T04:11:46;93583.84;;;12.80;66.11
71107;BME280;58763;47.982;11.516;2023-04-23T04:14:12;93586.22;;;12.82;65.54
71107;BME280;58763;47.982;11.516;2023-04-23T04:16:38;93590.84;;;12.81;65.78
71107;BME280;58763;47.982;11.516;2023-04-23T04:19:03;93585.28;;;12.86;66.06
71107;BME280;58763;47.982;11.516;2023-04-23T04:21:30;93595.19;;;12.91;66.52
71107;BME280;58763;47.982;11.516;2023-04-23T04:23:58;93606.34;;;13.11;67.56
71107;BME280;58763;47.982;11.516;2023-04-23T04:26:27;93600.19;;;12.97;67.47
71107;BME280;58763;47.982;11.516;2023-04-23T04:28:52;93609.09;;;12.89;67.87
71107;BME280;58763;47.982;11.516;2023-04-23T04:31:18;93616.13;;;12.90;68.36
71107;BME280;58763;47.982;11.516;2023-04-23T04:33:47;93614.19;;;12.91;68.33
71107;BME280;58763;47.982;11.516;2023-04-23T04:36:13;93619.38;;;12.70;68.83
71107;BME280;58763;47.982;11.516;2023-04-23T04:38:39;93622.44;;;12.46;70.29
71107;BME280;58763;47.982;11.516;2023-04-23T04:41:05;93622.88;;;12.40;71.52
71107;BME280;58763;47.982;11.516;2023-04-23T04:43:31;93623.28;;;12.03;74.32
71107;BME280;58763;47.982;11.516;2023-04-23T04:45:57;93627.22;;;11.97;75.11
71107;BME280;58763;47.982;11.516;2023-04-23T04:48:26;93621.78;;;11.74;77.35
71107;BME280;58763;47.982;11.516;2023-04-23T04:50:52;93627.56;;;11.82;76.87
71107;BME280;58763;47.982;11.516;2023-04-23T04:53:17;93630.22;;;11.59;79.22
71107;BME280;58763;47.982;11.516;2023-04-23T04:55:43;93629.03;;;11.52;80.13
71107;BME280;58763;47.982;11.516;2023-04-23T04:58:08;93639.16;;;11.46;80.83
71107;BME280;58763;47.982;11.516;2023-04-23T05:00:34;93632.31;;;11.13;83.05
71107;BME280;58763;47.982;11.516;2023-04-23T05:02:59;93643.28;;;11.30;82.50
71107;BME280;58763;47.982;11.516;2023-04-23T05:05:26;93645.31;;;11.11;83.57
71107;BME280;58763;47.982;11.516;2023-04-23T05:07:52;93650.72;;;11.11;84.17
71107;BME280;58763;47.982;11.516;2023-04-23T05:10:23;93656.22;;;10.92;84.86
71107;BME280;58763;47.982;11.516;2023-04-23T05:12:49;93660.94;;;11.14;84.14
71107;BME280;58763;47.982;11.516;2023-04-23T05:15:16;93659.84;;;11.29;83.56
71107;BME280;58763;47.982;11.516;2023-04-23T05:17:42;93664.03;;;11.35;83.43
71107;BME280;58763;47.982;11.516;2023-04-23T05:20:08;93671.03;;;11.49;82.90
71107;BME280;58763;47.982;11.516;2023-04-23T05:22:40;93663.53;;;11.46;82.72
71107;BME280;58763;47.982;11.516;2023-04-23T05:25:08;93668.34;;;11.49;82.65
71107;BME280;58763;47.982;11.516;2023-04-23T05:27:34;93673.94;;;11.53;82.41
71107;BME280;58763;47.982;11.516;2023-04-23T05:30:01;93671.97;;;11.31;83.23
71107;BME280;58763;47.982;11.516;2023-04-23T05:32:27;93677.91;;;11.06;84.46
71107;BME280;58763;47.982;11.516;2023-04-23T05:34:53;93673.00;;;11.08;84.90
71107;BME280;58763;47.982;11.516;2023-04-23T05:37:18;93669.97;;;10.96;85.07
71107;BME280;58763;47.982;11.516;2023-04-23T05:39:44;93677.50;;;10.99;85.65
71107;BME280;58763;47.982;11.516;2023-04-23T05:42:10;93672.38;;;10.84;86.83
71107;BME280;58763;47.982;11.516;2023-04-23T05:44:35;93675.97;;;10.93;86.35
71107;BME280;58763;47.982;11.516;2023-04-23T05:47:01;93683.50;;;10.96;86.35
71107;BME280;58763;47.982;11.516;2023-04-23T05:49:26;93677.78;;;11.11;85.88
71107;BME280;58763;47.982;11.516;2023-04-23T05:51:52;93681.50;;;11.15;85.75
71107;BME280;58763;47.982;11.516;2023-04-23T05:54:17;93690.31;;;11.21;85.35
71107;BME280;58763;47.982;11.516;2023-04-23T05:56:43;93687.31;;;11.36;85.07
71107;BME280;58763;47.982;11.516;2023-04-23T05:59:08;93692.00;;;11.44;84.57
71107;BME280;58763;47.982;11.516;2023-04-23T06:01:34;93693.50;;;11.50;84.46
71107;BME280;58763;47.982;11.516;2023-04-23T06:04:00;93695.31;;;11.54;83.87
71107;BME280;58763;47.982;11.516;2023-04-23T06:06:25;93690.06;;;11.58;83.95
71107;BME280;58763;47.982;11.516;2023-04-23T06:08:52;93694.59;;;11.62;84.18
71107;BME280;58763;47.982;11.516;2023-04-23T06:11:17;93699.09;;;11.67;84.06
71107;BME280;58763;47.982;11.516;2023-04-23T06:13:43;93699.31;;;11.70;83.79
71107;BME280;58763;47.982;11.516;2023-04-23T06:16:09;93701.31;;;11.78;83.63
71107;BME280;58763;47.982;11.516;2023-04-23T06:18:35;93703.78;;;11.89;82.96
71107;BME280;58763;47.982;11.516;2023-04-23T06:21:02;93700.09;;;11.85;82.63
71107;BME280;58763;47.982;11.516;2023-04-23T06:23:32;93702.22;;;11.88;83.16
71107;BME280;58763;47.982;11.516;2023-04-23T06:25:58;93698.19;;;11.85;83.00
71107;BME280;58763;47.982;11.516;2023-04-23T06:28:25;93692.97;;;11.89;83.56
71107;BME280;58763;47.982;11.516;2023-04-23T06:30:51;93699.06;;;11.94;83.11
71107;BME280;58763;47.982;11.516;2023-04-23T06:33:30;93693.72;;;12.03;82.95
71107;BME280;58763;47.982;11.516;2023-04-23T06:36:06;93695.13;;;12.00;82.85
71107;BME280;58763;47.982;11.516;2023-04-23T06:38:36;93701.13;;;12.11;82.70
71107;BME280;58763;47.982;11.516;2023-04-23T06:41:02;93697.72;;;12.05;82.65
71107;BME280;58763;47.982;11.516;2023-04-23T06:43:28;93700.13;;;12.07;82.85
71107;BME280;58763;47.982;11.516;2023-04-23T06:45:53;93689.38;;;12.15;81.95
71107;BME280;58763;47.982;11.516;2023-04-23T06:48:19;93698.97;;;12.21;81.99
71107;BME280;58763;47.982;11.516;2023-04-23T06:50:46;93690.78;;;12.13;82.41
71107;BME280;58763;47.982;11.516;2023-04-23T06:53:13;93691.28;;;12.15;82.43
71107;BME280;58763;47.982;11.516;2023-04-23T06:55:38;93693.69;;;12.16;82.11
71107;BME280;58763;47.982;11.516;2023-04-23T06:58:04;93688.63;;;12.23;81.99
71107;BME280;58763;47.982;11.516;2023-04-23T07:00:32;93685.75;;;12.20;82.33
71107;BME280;58763;47.982;11.516;2023-04-23T07:02:58;93684.94;;;12.19;82.53
71107;BME280;58763;47.982;11.516;2023-04-23T07:05:23;93686.94;;;12.27;82.35
71107;BME280;58763;47.982;11.516;2023-04-23T07:07:49;93681.31;;;12.24;82.21
71107;BME280;58763;47.982;11.516;2023-04-23T07:10:14;93685.81;;;12.28;82.40
71107;BME280;58763;47.982;11.516;2023-04-23T07:12:40;93679.34;;;12.38;81.98
71107;BME280;58763;47.982;11.516;2023-04-23T07:15:06;93684.28;;;12.36;81.69
71107;BME280;58763;47.982;11.516;2023-04-23T07:17:32;93686.38;;;12.39;81.85
71107;BME280;58763;47.982;11.516;2023-04-23T07:19:57;93684.16;;;12.41;81.53
71107;BME280;58763;47.982;11.516;2023-04-23T07:22:24;93683.16;;;12.37;82.09
71107;BME280;58763;47.982;11.516;2023-04-23T07:24:50;93682.97;;;12.33;82.06
71107;BME280;58763;47.982;11.516;2023-04-23T07:27:16;93687.59;;;12.33;82.25
71107;BME280;58763;47.982;11.516;2023-04-23T07:29:41;93682.78;;;12.30;82.35
71107;BME280;58763;47.982;11.516;2023-04-23T07:32:07;93683.28;;;12.32;82.59
71107;BME280;58763;47.982;11.516;2023-04-23T07:34:32;93683.41;;;12.27;82.37
71107;BME280;58763;47.982;11.516;2023-04-23T07:37:10;93679.78;;;12.31;82.58
71107;BME280;58763;47.982;11.516;2023-04-23T07:39:36;93679.03;;;12.17;80.81
71107;BME280;58763;47.982;11.516;2023-04-23T07:42:01;93681.69;;;12.31;81.40
71107;BME280;58763;47.982;11.516;2023-04-23T07:44:27;93686.50;;;12.34;81.83
71107;BME280;58763;47.982;11.516;2023-04-23T07:46:52;93682.53;;;12.40;82.24
71107;BME280;58763;47.982;11.516;2023-04-23T07:49:18;93680.16;;;12.38;82.17
71107;BME280;58763;47.982;11.516;2023-04-23T07:51:44;93679.78;;;12.31;82.47
71107;BME280;58763;47.982;11.516;2023-04-23T07:54:09;93679.56;;;12.28;82.38
71107;BME280;58763;47.982;11.516;2023-04-23T07:56:35;93684.88;;;12.33;82.74
71107;BME280;58763;47.982;11.516;2023-04-23T07:59:01;93682.25;;;12.41;81.92
71107;BME280;58763;47.982;11.516;2023-04-23T08:01:27;93682.78;;;12.52;81.75
71107;BME280;58763;47.982;11.516;2023-04-23T08:03:53;93683.72;;;12.47;82.06
71107;BME280;58763;47.982;11.516;2023-04-23T08:06:21;93680.19;;;12.47;82.32
71107;BME280;58763;47.982;11.516;2023-04-23T08:08:48;93674.66;;;12.52;82.32
71107;BME280;58763;47.982;11.516;2023-04-23T08:11:13;93675.13;;;12.54;82.33
71107;BME280;58763;47.982;11.516;2023-04-23T08:13:39;93669.34;;;12.69;81.72
71107;BME280;58763;47.982;11.516;2023-04-23T08:16:05;93671.13;;;12.74;81.70
71107;BME280;58763;47.982;11.516;2023-04-23T08:18:31;93672.59;;;12.88;81.28
71107;BME280;58763;47.982;11.516;2023-04-23T08:20:57;93670.56;;;12.94;81.13
71107;BME280;58763;47.982;11.516;2023-04-23T08:23:22;93665.94;;;12.94;81.28
71107;BME280;58763;47.982;11.516;2023-04-23T08:25:48;93669.75;;;12.93;81.05
71107;BME280;58763;47.982;11.516;2023-04-23T08:28:14;93654.75;;;12.87;79.61
71107;BME280;58763;47.982;11.516;2023-04-23T08:30:40;93661.94;;;12.92;79.62
71107;BME280;58763;47.982;11.516;2023-04-23T08:33:06;93663.09;;;12.99;80.11
71107;BME280;58763;47.982;11.516;2023-04-23T08:35:31;93659.25;;;13.00;78.78
71107;BME280;58763;47.982;11.516;2023-04-23T08:37:57;93655.94;;;13.03;78.39
71107;BME280;58763;47.982;11.516;2023-04-23T08:40:22;93659.59;;;12.99;76.42
71107;BME280;58763;47.982;11.516;2023-04-23T08:42:53;93657.41;;;12.79;78.24
71107;BME280;58763;47.982;11.516;2023-04-23T08:45:22;93666.69;;;12.86;79.32
71107;BME280;58763;47.982;11.516;2023-04-23T08:47:48;93667.84;;;12.94;79.29
71107;BME280;58763;47.982;11.516;2023-04-23T08:50:17;93666.78;;;13.03;78.69
71107;BME280;58763;47.982;11.516;2023-04-23T08:52:51;93663.84;;;13.22;78.48
71107;BME280;58763;47.982;11.516;2023-04-23T08:55:18;93663.06;;;13.22;78.78
71107;BME280;58763;47.982;11.516;2023-04-23T08:57:45;93664.34;;;13.24;78.38
71107;BME280;58763;47.982;11.516;2023-04-23T09:00:12;93663.09;;;13.30;77.56
71107;BME280;58763;47.982;11.516;2023-04-23T09:02:43;93660.06;;;13.32;76.82
71107;BME280;58763;47.982;11.516;2023-04-23T09:05:09;93660.06;;;13.32;77.86
71107;BME280;58763;47.982;11.516;2023-04-23T09:07:35;93654.00;;;13.35;77.60
71107;BME280;58763;47.982;11.516;2023-04-23T09:10:02;93656.06;;;13.38;78.23
71107;BME280;58763;47.982;11.516;2023-04-23T09:12:28;93652.88;;;13.36;78.28
71107;BME280;58763;47.982;11.516;2023-04-23T09:14:54;93652.72;;;13.41;78.06
71107;BME280;58763;47.982;11.516;2023-04-23T09:17:21;93652.75;;;13.49;78.24
71107;BME280;58763;47.982;11.516;2023-04-23T09:19:47;93645.75;;;13.57;78.07
71107;BME280;58763;47.982;11.516;2023-04-23T09:22:14;93645.75;;;13.65;75.75
71107;BME280;58763;47.982;11.516;2023-04-23T09:24:41;93637.16;;;13.72;77.98
71107;BME280;58763;47.982;11.516;2023-04-23T09:27:09;93645.31;;;13.72;78.29
71107;BME280;58763;47.982;11.516;2023-04-23T09:29:35;93649.63;;;13.81;77.58
71107;BME280;58763;47.982;11.516;2023-04-23T09:32:08;93639.25;;;13.83;76.03
71107;BME280;58763;47.982;11.516;2023-04-23T09:34:35;93640.66;;;13.90;77.02
71107;BME280;58763;47.982;11.516;2023-04-23T09:37:04;93638.75;;;13.90;76.75
71107;BME280;58763;47.982;11.516;2023-04-23T09:39:33;93640.34;;;13.82;77.43
71107;BME280;58763;47.982;11.516;2023-04-23T09:42:03;93624.50;;;13.84;77.37
71107;BME280;58763;47.982;11.516;2023-04-23T09:44:32;93622.44;;;13.73;75.73
71107;BME280;58763;47.982;11.516;2023-04-23T09:47:07;93623.72;;;13.84;75.55
71107;BME280;58763;47.982;11.516;2023-04-23T09:49:49;93614.44;;;13.94;75.36
71107;BME280;58763;47.982;11.516;2023-04-23T09:52:14;93617.66;;;14.04;74.64
71107;BME280;58763;47.982;11.516;2023-04-23T09:54:41;93620.19;;;14.18;73.71
71107;BME280;58763;47.982;11.516;2023-04-23T09:57:07;93618.91;;;14.15;73.50
71107;BME280;58763;47.982;11.516;2023-04-23T09:59:34;93617.00;;;14.24;73.45
71107;BME280;58763;47.982;11.516;2023-04-23T10:02:04;93616.06;;;14.37;72.97
71107;BME280;58763;47.982;11.516;2023-04-23T10:04:31;93606.59;;;14.43;70.87
71107;BME280;58763;47.982;11.516;2023-04-23T10:06:58;93613.28;;;14.54;71.98
71107;BME280;58763;47.982;11.516;2023-04-23T10:09:25;93607.88;;;14.46;71.70
71107;BME280;58763;47.982;11.516;2023-04-23T10:11:53;93597.44;;;14.57;71.65
71107;BME280;58763;47.982;11.516;2023-04-23T10:14:20;93590.13;;;14.48;73.38
71107;BME280;58763;47.982;11.516;2023-04-23T10:16:46;93589.09;;;14.62;72.25
71107;BME280;58763;47.982;11.516;2023-04-23T10:19:18;93589.56;;;14.72;69.69
71107;BME280;58763;47.982;11.516;2023-04-23T10:21:49;93592.09;;;14.77;70.83
71107;BME280;58763;47.982;11.516;2023-04-23T10:24:18;93588.78;;;14.72;71.71
71107;BME280;58763;47.982;11.516;2023-04-23T10:26:46;93594.00;;;14.85;72.02
71107;BME280;58763;47.982;11.516;2023-04-23T10:29:13;93594.00;;;14.85;71.33
71107;BME280;58763;47.982;11.516;2023-04-23T10:31:41;93590.78;;;14.92;71.43
71107;BME280;58763;47.982;11.516;2023-04-23T10:34:09;93586.75;;;14.98;71.64
71107;BME280;58763;47.982;11.516;2023-04-23T10:36:38;93573.38;;;15.13;71.07
71107;BME280;58763;47.982;11.516;2023-04-23T10:39:05;93581.38;;;15.18;71.41
71107;BME280;58763;47.982;11.516;2023-04-23T10:41:35;93576.75;;;15.40;69.93
71107;BME280;58763;47.982;11.516;2023-04-23T10:44:05;93572.91;;;15.49;68.66
71107;BME280;58763;47.982;11.516;2023-04-23T10:46:32;93572.56;;;15.51;68.54
71107;BME280;58763;47.982;11.516;2023-04-23T10:49:05;93567.44;;;15.41;67.62
71107;BME280;58763;47.982;11.516;2023-04-23T10:51:33;93557.13;;;15.55;69.03
71107;BME280;58763;47.982;11.516;2023-04-23T10:53:59;93548.75;;;15.80;70.09
71107;BME280;58763;47.982;11.516;2023-04-23T10:56:26;93554.28;;;15.93;68.16
71107;BME280;58763;47.982;11.516;2023-04-23T10:58:52;93543.34;;;16.13;69.30
71107;BME280;58763;47.982;11.516;2023-04-23T11:01:18;93547.50;;;16.31;66.15
71107;BME280;58763;47.982;11.516;2023-04-23T11:03:45;93537.72;;;16.30;65.18
71107;BME280;58763;47.982;11.516;2023-04-23T11:09:40;93532.09;;;16.47;68.05
71107;BME280;58763;47.982;11.516;2023-04-23T11:14:52;93517.59;;;16.55;66.16
71107;BME280;58763;47.982;11.516;2023-04-23T11:20:20;93509.53;;;16.59;64.77
71107;BME280;58763;47.982;11.516;2023-04-23T11:22:48;93496.78;;;16.51;64.25
71107;BME280;58763;47.982;11.516;2023-04-23T11:25:18;93503.94;;;16.55;65.21
71107;BME280;58763;47.982;11.516;2023-04-23T11:27:45;93507.94;;;16.58;63.07
71107;BME280;58763;47.982;11.516;2023-04-23T11:30:18;93498.84;;;16.66;62.95
71107;BME280;58763;47.982;11.516;2023-04-23T11:32:46;93500.22;;;16.72;62.11
71107;BME280;58763;47.982;11.516;2023-04-23T11:35:17;93502.59;;;16.86;63.58
71107;BME280;58763;47.982;11.516;2023-04-23T11:37:45;93492.91;;;16.64;62.18
71107;BME280;58763;47.982;11.516;2023-04-23T11:40:12;93489.06;;;16.77;62.02
71107;BME280;58763;47.982;11.516;2023-04-23T11:42:52;93493.16;;;16.83;63.27
71107;BME280;58763;47.982;11.516;2023-04-23T11:45:19;93488.38;;;16.92;62.49
71107;BME280;58763;47.982;11.516;2023-04-23T11:47:47;93485.19;;;17.02;62.46
71107;BME280;58763;47.982;11.516;2023-04-23T11:50:18;93479.59;;;17.11;61.53
71107;BME280;58763;47.982;11.516;2023-04-23T11:52:44;93472.56;;;17.22;61.24
71107;BME280;58763;47.982;11.516;2023-04-23T11:55:10;93476.66;;;17.04;60.30
71107;BME280;58763;47.982;11.516;2023-04-23T11:57:36;93474.41;;;17.06;59.83
71107;BME280;58763;47.982;11.516;2023-04-23T12:00:19;93469.38;;;17.08;60.55
71107;BME280;58763;47.982;11.516;2023-04-23T12:02:54;93456.63;;;17.12;58.66
71107;BME280;58763;47.982;11.516;2023-04-23T12:05:37;93460.81;;;17.34;59.20
71107;BME280;58763;47.982;11.516;2023-04-23T12:08:11;93446.66;;;17.44;58.85
71107;BME280;58763;47.982;11.516;2023-04-23T12:10:47;93447.53;;;17.60;59.30
71107;BME280;58763;47.982;11.516;2023-04-23T12:13:20;93446.03;;;17.74;55.22
71107;BME280;58763;47.982;11.516;2023-04-23T12:15:46;93444.25;;;17.94;56.71
71107;BME280;58763;47.982;11.516;2023-04-23T12:18:12;93436.63;;;18.31;57.75
71107;BME280;58763;47.982;11.516;2023-04-23T12:20:39;93426.97;;;18.49;56.15
71107;BME280;58763;47.982;11.516;2023-04-23T12:23:05;93437.81;;;18.77;56.90
71107;BME280;58763;47.982;11.516;2023-04-23T12:25:34;93435.53;;;18.63;56.82
71107;BME280;58763;47.982;11.516;2023-04-23T12:28:01;93428.47;;;18.46;57.48
71107;BME280;58763;47.982;11.516;2023-04-23T12:30:32;93426.38;;;18.28;59.19
71107;BME280;58763;47.982;11.516;2023-04-23T12:33:02;93418.69;;;18.45;58.68
71107;BME280;58763;47.982;11.516;2023-04-23T12:35:39;93418.22;;;18.75;58.92
71107;BME280;58763;47.982;11.516;2023-04-23T12:38:05;93416.34;;;18.94;57.28
71107;BME280;58763;47.982;11.516;2023-04-23T12:40:31;93418.19;;;19.06;56.81
71107;BME280;58763;47.982;11.516;2023-04-23T12:42:57;93417.91;;;19.11;56.43
71107;BME280;58763;47.982;11.516;2023-04-23T12:45:22;93411.44;;;19.19;53.91
71107;BME280;58763;47.982;11.516;2023-04-23T12:47:48;93410.28;;;19.20;55.10
71107;BME280;58763;47.982;11.516;2023-04-23T12:50:13;93406.59;;;19.12;53.76
71107;BME280;58763;47.982;11.516;2023-04-23T12:52:41;93405.09;;;19.15;54.50
71107;BME280;58763;47.982;11.516;2023-04-23T12:55:07;93400.94;;;19.05;52.68
71107;BME280;58763;47.982;11.516;2023-04-23T12:57:33;93393.38;;;18.99;53.08